Arcen, Netherlands
Current Conditions -  °F | °C
As of 9:20 AM on Friday 21 Nov 2014 (Local Time) from EDLV Reporting Station
Clear Clear  
Wind Chill: 36°   Ceiling: Unl
Heat Index: 39°   Visibility: 5mi
Dew Point: 39°   Wind: 5mph
Humidity: 100%   Direction: 80°E
Pressure: 30.21"   Gusts: NA
Location:  51.48°N, 6.18°E
Report Text: EDLV 210820Z 08004KT 360V150 8000 NSC 04/04 Q1023
Loading
Personal Weather Stations






























Interactive Weather Map New forecast layout! Learn more

10-Day Weather Forecast

Advertisements
Track Severe Weather on mobile